Alsen, South Dakota
Current Conditions -  °F | °C
As of 7:15 AM on Wednesday 22 Oct 2014 (Local Time) from KYKN Reporting Station
Clear Clear  
Wind Chill: 54°   Ceiling: Unl
Heat Index: 54°   Visibility: 10mi
Dew Point: 43°   Wind: 14mph
Humidity: 67%   Direction: 150°SSE
Pressure: 29.98"   Gusts: 20mph
Location:  43.1048°N, 96.7944°W
Report Text: KYKN 221215Z AUTO 15012G17KT 10SM CLR 12/06 A2998 RMK AO1
Loading
Personal Weather Stations






























Interactive Weather Map New forecast layout! Learn more

10-Day Weather Forecast

Advertisements
Track Severe Weather on mobile